createdAt,value
2024-02-20T00:01:08.858Z,4.43
2024-02-20T00:04:13.205Z,6.35
2024-02-20T00:07:15.113Z,4.57
2024-02-20T00:10:17.713Z,4.90
2024-02-20T00:13:19.795Z,4.60
2024-02-20T00:16:23.293Z,4.93
2024-02-20T00:19:26.903Z,3.80
2024-02-20T00:22:28.780Z,3.13
2024-02-20T00:25:32.008Z,3.65
2024-02-20T00:28:36.896Z,3.15
2024-02-20T00:31:38.776Z,3.50
2024-02-20T00:34:42.020Z,3.40
2024-02-20T00:37:43.874Z,3.55
2024-02-20T00:40:46.199Z,3.00
2024-02-20T00:43:48.065Z,2.70
2024-02-20T00:46:50.211Z,3.92
2024-02-20T00:49:54.937Z,4.05
2024-02-20T00:52:57.198Z,3.55
2024-02-20T00:55:58.964Z,3.35
2024-02-20T00:59:03.878Z,3.20
2024-02-20T01:02:12.571Z,4.20
2024-02-20T01:05:16.373Z,3.20
2024-02-20T01:08:19.192Z,3.80
2024-02-20T01:11:21.864Z,3.28
2024-02-20T01:14:25.182Z,3.70
2024-02-20T01:17:26.929Z,3.22
2024-02-20T01:20:30.061Z,3.30
2024-02-20T01:23:32.485Z,3.30
2024-02-20T01:26:34.367Z,3.28
2024-02-20T01:29:38.111Z,2.90
2024-02-20T01:32:39.987Z,2.70
2024-02-20T01:35:43.266Z,3.45
2024-02-20T01:38:46.091Z,2.70
2024-02-20T01:41:48.467Z,2.92
2024-02-20T01:44:50.197Z,3.03
2024-02-20T01:47:52.138Z,3.00
2024-02-20T01:50:55.559Z,3.42
2024-02-20T01:53:57.704Z,2.50
2024-02-20T01:57:00.060Z,2.63
2024-02-20T02:00:02.245Z,3.35
2024-02-20T02:03:05.079Z,2.58
2024-02-20T02:06:08.333Z,3.65
2024-02-20T02:09:10.839Z,2.75
2024-02-20T02:12:13.001Z,3.53
2024-02-20T02:15:14.871Z,3.33
2024-02-20T02:18:17.087Z,2.90
2024-02-20T02:21:20.456Z,3.15
2024-02-20T02:24:23.032Z,3.28
2024-02-20T02:27:26.268Z,3.10
2024-02-20T02:30:29.735Z,2.67
2024-02-20T02:33:32.016Z,3.30
2024-02-20T02:36:33.850Z,2.50
2024-02-20T02:39:35.971Z,3.05
2024-02-20T02:42:39.218Z,2.80
2024-02-20T02:45:42.305Z,2.90
2024-02-20T02:48:44.970Z,2.85
2024-02-20T02:51:46.871Z,2.38
2024-02-20T02:54:48.920Z,2.03
2024-02-20T02:57:52.171Z,2.42
2024-02-20T03:00:54.078Z,1.92
2024-02-20T03:03:56.982Z,2.47
2024-02-20T03:06:59.840Z,2.50
2024-02-20T03:10:02.037Z,2.10
2024-02-20T03:13:05.486Z,2.40
2024-02-20T03:16:08.109Z,2.60
2024-02-20T03:19:10.092Z,2.75
2024-02-20T03:22:13.018Z,1.90
2024-02-20T03:25:16.814Z,2.20
2024-02-20T03:28:20.295Z,2.13
2024-02-20T03:31:22.876Z,2.20
2024-02-20T03:34:24.806Z,1.85
2024-02-20T03:37:26.599Z,1.95
2024-02-20T03:40:28.462Z,1.83
2024-02-20T03:43:33.788Z,2.22
2024-02-20T03:46:35.921Z,3.08
2024-02-20T03:49:38.039Z,2.45
2024-02-20T03:52:39.983Z,2.00
2024-02-20T03:55:42.781Z,2.20
2024-02-20T03:58:46.074Z,1.73
2024-02-20T04:01:47.955Z,2.67
2024-02-20T04:04:50.433Z,2.22
2024-02-20T04:07:52.255Z,2.30
2024-02-20T04:10:54.858Z,2.55
2024-02-20T04:13:58.118Z,2.08
2024-02-20T04:17:00.697Z,1.88
2024-02-20T04:20:04.720Z,2.42
2024-02-20T04:23:08.169Z,1.98
2024-02-20T04:26:10.689Z,2.20
2024-02-20T04:29:13.944Z,1.88
2024-02-20T04:32:16.761Z,1.90
2024-02-20T04:35:18.699Z,1.92
2024-02-20T04:38:20.645Z,2.13
2024-02-20T04:41:26.156Z,2.28
2024-02-20T04:44:29.891Z,2.70
2024-02-20T04:47:32.772Z,2.33
2024-02-20T04:50:34.639Z,2.70
2024-02-20T04:53:36.413Z,2.00
2024-02-20T04:56:38.650Z,2.35
2024-02-20T04:59:45.535Z,2.10
2024-02-20T05:02:49.504Z,2.10
2024-02-20T05:05:51.612Z,2.10
2024-02-20T05:08:53.391Z,2.35
2024-02-20T05:11:55.587Z,1.83
2024-02-20T05:14:58.782Z,2.20
2024-02-20T05:18:00.688Z,2.55
2024-02-20T05:21:03.646Z,2.33
2024-02-20T05:24:05.689Z,2.63
2024-02-20T05:27:07.508Z,2.65
2024-02-20T05:30:12.505Z,2.67
2024-02-20T05:33:14.497Z,3.10
2024-02-20T05:36:16.533Z,3.15
2024-02-20T05:39:18.327Z,3.10
2024-02-20T05:42:20.077Z,3.53
2024-02-20T05:45:23.849Z,4.00
2024-02-20T05:48:25.730Z,8.00
2024-02-20T05:51:29.225Z,4.53
2024-02-20T05:54:31.208Z,6.03
2024-02-20T05:57:33.458Z,9.35
2024-02-20T06:00:36.726Z,9.30
2024-02-20T06:03:39.427Z,9.82
2024-02-20T06:06:43.511Z,7.95
2024-02-20T06:09:45.432Z,7.53
2024-02-20T06:12:47.177Z,5.40
2024-02-20T06:15:51.921Z,4.20
2024-02-20T06:18:54.484Z,4.55
2024-02-20T06:21:56.484Z,3.83
2024-02-20T06:24:58.284Z,3.92
2024-02-20T06:28:00.279Z,3.67
2024-02-20T06:31:08.570Z,4.13
2024-02-20T06:34:11.379Z,3.88
2024-02-20T06:37:14.747Z,3.78
2024-02-20T06:40:16.733Z,3.65
2024-02-20T06:43:19.346Z,3.70
2024-02-20T06:46:24.922Z,3.05
2024-02-20T06:49:26.993Z,3.35
2024-02-20T06:52:29.188Z,2.40
2024-02-20T06:55:31.112Z,2.63
2024-02-20T06:58:33.363Z,2.40
2024-02-20T07:01:36.527Z,2.38
2024-02-20T07:04:40.330Z,3.50
2024-02-20T07:07:42.605Z,3.88
2024-02-20T07:10:44.454Z,3.55
2024-02-20T07:13:47.330Z,2.90
2024-02-20T07:16:50.591Z,3.53
2024-02-20T07:19:52.419Z,3.60
2024-02-20T07:22:55.246Z,3.83
2024-02-20T07:25:57.107Z,3.45
2024-02-20T07:28:59.796Z,3.33
2024-02-20T07:32:02.989Z,2.85
2024-02-20T07:35:05.332Z,2.22
2024-02-20T07:38:08.155Z,2.00
2024-02-20T07:41:09.961Z,1.70
2024-02-20T07:44:12.224Z,2.03
2024-02-20T07:47:15.849Z,2.38
2024-02-20T07:50:19.138Z,1.88
2024-02-20T07:53:21.436Z,2.55
2024-02-20T07:56:24.252Z,1.90
2024-02-20T07:59:26.064Z,2.42
2024-02-20T08:02:29.286Z,2.38
2024-02-20T08:05:31.329Z,2.67
2024-02-20T08:08:33.211Z,3.22
2024-02-20T08:11:35.650Z,2.95
2024-02-20T08:14:38.268Z,2.63
2024-02-20T08:17:42.601Z,2.95
2024-02-20T08:20:44.346Z,3.05
2024-02-20T08:23:46.726Z,2.88
2024-02-20T08:26:50.766Z,2.67
2024-02-20T08:29:52.618Z,3.45
2024-02-20T08:32:55.816Z,3.00
2024-02-20T08:35:58.130Z,3.20
2024-02-20T08:39:00.027Z,3.30
2024-02-20T08:42:02.099Z,3.05
2024-02-20T08:45:06.045Z,3.10
2024-02-20T08:48:09.697Z,3.65
2024-02-20T08:51:11.981Z,3.63
2024-02-20T08:54:13.849Z,3.78
2024-02-20T08:57:15.960Z,3.38
2024-02-20T09:00:18.081Z,3.92
2024-02-20T09:03:21.427Z,3.78
2024-02-20T09:06:24.082Z,3.20
2024-02-20T09:09:26.100Z,3.63
2024-02-20T09:12:28.168Z,4.32
2024-02-20T09:15:30.010Z,3.72
2024-02-20T09:18:36.260Z,4.20
2024-02-20T09:21:39.062Z,4.65
2024-02-20T09:24:41.925Z,3.60
2024-02-20T09:27:44.981Z,3.78
2024-02-20T09:30:46.729Z,3.60
2024-02-20T09:33:49.992Z,4.55
2024-02-20T09:36:51.818Z,3.83
2024-02-20T09:39:53.890Z,4.20
2024-02-20T09:43:00.159Z,4.45
2024-02-20T09:46:06.908Z,4.55
2024-02-20T09:49:10.475Z,4.30
2024-02-20T09:52:13.037Z,4.65
2024-02-20T09:55:15.573Z,4.30
2024-02-20T09:58:17.410Z,3.83
2024-02-20T10:01:20.007Z,3.67
2024-02-20T10:04:23.825Z,3.35
2024-02-20T10:07:25.750Z,3.42
2024-02-20T10:10:28.358Z,3.20
2024-02-20T10:13:30.244Z,3.28
2024-02-20T10:16:32.858Z,2.70
2024-02-20T10:19:36.113Z,2.97
2024-02-20T10:22:41.169Z,3.00
2024-02-20T10:25:43.707Z,3.30
2024-02-20T10:28:45.601Z,2.78
2024-02-20T10:31:47.776Z,3.28
2024-02-20T10:35:00.324Z,3.05
2024-02-20T10:38:04.044Z,3.85
2024-02-20T10:41:05.980Z,3.55
2024-02-20T10:44:08.851Z,3.13
2024-02-20T10:47:11.226Z,3.15
2024-02-20T10:50:16.073Z,3.70
2024-02-20T10:53:18.422Z,3.58
2024-02-20T10:56:22.062Z,3.17
2024-02-20T10:59:24.206Z,3.28
2024-02-20T11:02:28.836Z,4.22
2024-02-20T11:05:32.896Z,3.90
2024-02-20T11:08:35.821Z,3.80
2024-02-20T11:11:37.948Z,3.67
2024-02-20T11:14:40.627Z,3.38
2024-02-20T11:17:43.617Z,3.78
2024-02-20T11:20:47.108Z,3.40
2024-02-20T11:23:49.646Z,3.60
2024-02-20T11:27:00.409Z,4.20
2024-02-20T11:30:07.909Z,4.05
2024-02-20T11:33:13.566Z,3.00
2024-02-20T11:39:18.951Z,3.42
2024-02-20T11:42:20.833Z,3.20
2024-02-20T11:45:25.765Z,3.20
2024-02-20T11:48:27.736Z,3.53
2024-02-20T11:51:30.568Z,4.05
2024-02-20T11:54:33.765Z,4.05
2024-02-20T11:57:36.649Z,3.42
2024-02-20T12:00:38.955Z,3.50
2024-02-20T12:03:44.307Z,3.58
2024-02-20T12:06:46.090Z,3.70
2024-02-20T12:09:55.364Z,4.05
2024-02-20T12:12:57.142Z,3.47
2024-02-20T12:15:58.898Z,3.85
2024-02-20T12:19:10.152Z,3.58
2024-02-20T12:22:19.294Z,3.42
2024-02-20T12:28:24.482Z,3.20
2024-02-20T12:31:28.155Z,3.50
2024-02-20T12:34:37.655Z,2.60
2024-02-20T12:37:44.468Z,3.08
2024-02-20T12:40:46.480Z,3.42
2024-02-20T12:43:50.017Z,3.40
2024-02-20T12:46:52.566Z,3.03
2024-02-20T12:49:54.417Z,3.83
2024-02-20T12:52:57.461Z,3.30
2024-02-20T12:55:59.345Z,3.13
2024-02-20T12:59:02.574Z,3.58
2024-02-20T13:02:06.477Z,2.90
2024-02-20T13:05:09.447Z,2.63
2024-02-20T13:08:11.460Z,2.63
2024-02-20T13:11:16.950Z,3.15
2024-02-20T13:14:20.769Z,3.05
2024-02-20T13:17:23.470Z,2.78
2024-02-20T13:20:26.690Z,3.20
2024-02-20T13:23:28.833Z,3.20
2024-02-20T13:26:31.338Z,3.13
2024-02-20T13:29:35.542Z,3.30
2024-02-20T13:32:40.154Z,3.47
2024-02-20T13:35:41.944Z,3.25
2024-02-20T13:38:44.423Z,3.65
2024-02-20T13:41:46.280Z,3.30
2024-02-20T13:44:49.798Z,3.83
2024-02-20T13:47:51.837Z,3.80
2024-02-20T13:50:55.790Z,2.95
2024-02-20T13:53:59.793Z,3.00
2024-02-20T13:57:02.392Z,2.83
2024-02-20T14:00:08.277Z,2.80
2024-02-20T14:03:10.304Z,3.10
2024-02-20T14:06:12.156Z,2.92
2024-02-20T14:09:14.277Z,2.95
2024-02-20T14:12:16.131Z,3.38
2024-02-20T14:15:19.941Z,3.80
2024-02-20T14:18:21.855Z,3.83
2024-02-20T14:21:24.557Z,3.30
2024-02-20T14:24:26.586Z,3.38
2024-02-20T14:27:28.362Z,3.58
2024-02-20T14:30:35.454Z,3.72
2024-02-20T14:33:44.621Z,3.47
2024-02-20T14:36:47.204Z,3.78
2024-02-20T14:39:48.994Z,3.80
2024-02-20T14:42:51.325Z,4.05
2024-02-20T14:45:56.219Z,3.60
2024-02-20T14:48:58.093Z,3.92
2024-02-20T14:52:00.149Z,4.72
2024-02-20T14:55:01.917Z,3.55
2024-02-20T14:58:07.770Z,3.70
2024-02-20T15:01:11.123Z,4.70
2024-02-20T15:04:13.358Z,4.03
2024-02-20T15:07:17.755Z,3.50
2024-02-20T15:10:19.815Z,3.20
2024-02-20T15:13:22.118Z,3.17
2024-02-20T15:16:25.669Z,3.83
2024-02-20T15:19:28.109Z,3.30
2024-02-20T15:22:30.266Z,3.90
2024-02-20T15:25:32.075Z,4.07
2024-02-20T15:28:34.879Z,3.38
2024-02-20T15:31:38.093Z,3.60
2024-02-20T15:34:40.029Z,3.60
2024-02-20T15:37:41.983Z,3.38
2024-02-20T15:40:43.981Z,3.95
2024-02-20T15:43:45.983Z,3.72
2024-02-20T15:46:49.461Z,4.50
2024-02-20T15:49:51.989Z,3.70
2024-02-20T15:52:53.977Z,3.78
2024-02-20T15:55:56.083Z,4.18
2024-02-20T15:58:58.071Z,4.05
2024-02-20T16:02:01.497Z,3.55
2024-02-20T16:05:04.512Z,4.07
2024-02-20T16:08:10.212Z,3.35
2024-02-20T16:11:12.217Z,4.22
2024-02-20T16:14:14.111Z,3.70
2024-02-20T16:17:17.308Z,3.65
2024-02-20T16:20:20.029Z,4.03
2024-02-20T16:23:21.965Z,5.47
2024-02-20T16:26:25.272Z,4.70
2024-02-20T16:29:27.907Z,7.22
2024-02-20T16:32:31.942Z,11.43
2024-02-20T16:35:34.514Z,12.95
2024-02-20T16:38:36.609Z,10.57
2024-02-20T16:41:38.996Z,10.68
2024-02-20T16:44:40.739Z,10.43
2024-02-20T16:47:44.314Z,8.52
2024-02-20T16:50:46.172Z,8.75
2024-02-20T16:53:47.981Z,7.28
2024-02-20T16:56:49.740Z,6.80
2024-02-20T16:59:53.089Z,6.53
2024-02-20T17:02:56.269Z,5.97
2024-02-20T17:05:59.012Z,6.78
2024-02-20T17:09:00.859Z,6.55
2024-02-20T17:12:02.897Z,6.80
2024-02-20T17:15:05.491Z,6.38
2024-02-20T17:18:09.047Z,6.97
2024-02-20T17:21:13.993Z,6.45
2024-02-20T17:24:15.866Z,6.78
2024-02-20T17:27:17.742Z,7.88
2024-02-20T17:30:19.626Z,6.63
2024-02-20T17:33:22.915Z,6.22
2024-02-20T17:36:25.796Z,6.40
2024-02-20T17:39:27.830Z,6.45
2024-02-20T17:42:29.733Z,7.22
2024-02-20T17:45:32.196Z,6.88
2024-02-20T17:48:35.479Z,6.38
2024-02-20T17:51:37.729Z,6.38
2024-02-20T17:54:39.813Z,6.90
2024-02-20T17:57:42.804Z,7.13
2024-02-20T18:00:45.334Z,7.40
2024-02-20T18:03:49.170Z,6.97
2024-02-20T18:06:51.048Z,8.80
2024-02-20T18:09:52.869Z,11.05
2024-02-20T18:12:54.672Z,9.60
2024-02-20T18:15:56.538Z,9.13
2024-02-20T18:19:01.456Z,13.60
2024-02-20T18:22:03.347Z,9.60
2024-02-20T18:25:06.072Z,9.02
2024-02-20T18:28:07.948Z,4.57
2024-02-20T18:31:10.713Z,3.72
2024-02-20T18:34:14.176Z,3.75
2024-02-20T18:37:17.233Z,3.60
2024-02-20T18:40:19.218Z,4.13
2024-02-20T18:43:21.717Z,3.58
2024-02-20T18:46:24.426Z,3.85
2024-02-20T18:49:27.699Z,3.70
2024-02-20T18:52:37.767Z,3.97
2024-02-20T18:55:40.584Z,4.20
2024-02-20T18:58:42.583Z,3.53
2024-02-20T19:01:44.742Z,3.05
2024-02-20T19:04:49.094Z,3.50
2024-02-20T19:07:51.192Z,3.78
2024-02-20T19:10:53.587Z,4.50
2024-02-20T19:13:55.515Z,4.30
2024-02-20T19:16:59.609Z,4.70
2024-02-20T19:20:04.405Z,3.97
2024-02-20T19:23:06.446Z,5.10
2024-02-20T19:26:08.441Z,4.15
2024-02-20T19:29:10.327Z,4.72
2024-02-20T19:32:12.331Z,4.22
2024-02-20T19:35:16.094Z,4.47
2024-02-20T19:38:19.542Z,4.82
2024-02-20T19:41:25.818Z,4.68
2024-02-20T19:44:27.799Z,5.30
2024-02-20T19:47:29.686Z,4.78
2024-02-20T19:50:33.906Z,5.30
2024-02-20T19:53:35.901Z,5.53
2024-02-20T19:56:39.063Z,5.60
2024-02-20T19:59:41.728Z,6.05
2024-02-20T20:02:43.528Z,6.85
2024-02-20T20:05:47.891Z,6.65
2024-02-20T20:08:50.018Z,8.50
2024-02-20T20:11:52.320Z,8.55
2024-02-20T20:14:55.369Z,8.00
2024-02-20T20:17:59.056Z,8.45
2024-02-20T20:21:03.041Z,7.85
2024-02-20T20:24:14.046Z,7.18
2024-02-20T20:27:19.472Z,8.32
2024-02-20T20:30:23.452Z,6.68
2024-02-20T20:33:29.111Z,7.32
2024-02-20T20:36:32.751Z,6.97
2024-02-20T20:39:34.559Z,6.78
2024-02-20T20:42:37.524Z,7.13
2024-02-20T20:45:39.428Z,7.57
2024-02-20T20:48:43.309Z,7.70
2024-02-20T20:51:46.575Z,7.78
2024-02-20T20:54:48.524Z,7.28
2024-02-20T20:57:51.267Z,8.65
2024-02-20T21:00:53.117Z,8.27
2024-02-20T21:03:54.971Z,5.53
2024-02-20T21:06:58.305Z,5.63
2024-02-20T21:10:00.256Z,5.55
2024-02-20T21:13:02.340Z,5.90
2024-02-20T21:16:07.397Z,5.82
2024-02-20T21:19:09.713Z,5.15
2024-02-20T21:22:12.912Z,4.97
2024-02-20T21:25:15.644Z,5.78
2024-02-20T21:28:17.683Z,5.68
2024-02-20T21:31:19.646Z,4.85
2024-02-20T21:34:22.419Z,4.80
2024-02-20T21:37:25.866Z,5.18
2024-02-20T21:40:28.173Z,5.07
2024-02-20T21:43:30.439Z,4.28
2024-02-20T21:46:32.281Z,4.63
2024-02-20T21:49:35.161Z,5.30
2024-02-20T21:52:38.440Z,4.88
2024-02-20T21:55:41.196Z,5.38
2024-02-20T21:58:43.084Z,5.40
2024-02-20T22:01:44.886Z,4.50
2024-02-20T22:04:46.929Z,5.22
2024-02-20T22:07:51.395Z,4.45
2024-02-20T22:11:00.332Z,3.95
2024-02-20T22:14:02.279Z,3.88
2024-02-20T22:17:05.519Z,3.40
2024-02-20T22:20:08.411Z,3.80
2024-02-20T22:23:11.803Z,3.42
2024-02-20T22:26:17.106Z,3.72
2024-02-20T22:29:18.909Z,3.58
2024-02-20T22:32:21.001Z,3.72
2024-02-20T22:35:27.481Z,3.28
2024-02-20T22:38:33.092Z,4.60
2024-02-20T22:41:34.862Z,3.38
2024-02-20T22:44:37.044Z,4.40
2024-02-20T22:47:38.892Z,4.68
2024-02-20T22:50:40.646Z,6.28
2024-02-20T22:53:44.333Z,6.80
2024-02-20T22:56:46.734Z,6.63
2024-02-20T22:59:51.117Z,7.05
2024-02-20T23:02:52.921Z,7.40
2024-02-20T23:05:54.732Z,6.38
2024-02-20T23:08:58.343Z,6.47
2024-02-20T23:12:00.191Z,6.57
2024-02-20T23:15:02.092Z,5.55
2024-02-20T23:18:05.521Z,5.78
2024-02-20T23:21:08.041Z,6.05
2024-02-20T23:24:11.248Z,5.80
2024-02-20T23:27:13.069Z,6.78
2024-02-20T23:30:14.973Z,5.38
2024-02-20T23:33:17.923Z,5.22
2024-02-20T23:36:19.793Z,5.00
2024-02-20T23:39:23.248Z,3.78
2024-02-20T23:42:25.053Z,4.65
2024-02-20T23:45:26.948Z,4.70
2024-02-20T23:48:28.903Z,4.60
2024-02-20T23:51:30.776Z,4.18
2024-02-20T23:54:37.544Z,4.22
2024-02-20T23:57:39.413Z,3.35
